Time;durP1;ratioP1;P1;durP2;ratioP2;P2;SDS_P1;SDS_P2;PMS_P1;PMS_P2;Temp;Humidity;BMP_temperature;BMP_pressure;BME280_temperature;BME280_humidity;BME280_pressure;Samples;Min_cycle;Max_cycle;Signal;HPM_P1;HPM_P2
2021/10/14 00:02:53;;;;;;;3.75;1.20;;;9.60;86.30;;;;;;5061293;28;20037;-69
2021/10/14 00:05:57;;;;;;;3.95;1.13;;;9.70;84.30;;;;;;5056266;28;20379;-69
2021/10/14 00:09:02;;;;;;;2.22;1.00;;;10.10;82.80;;;;;;5061902;28;20040;-70
2021/10/14 00:12:07;;;;;;;3.58;1.02;;;10.30;82.40;;;;;;5061492;28;20036;-70
2021/10/14 00:15:11;;;;;;;3.72;1.30;;;10.10;82.80;;;;;;5062286;28;20044;-70
2021/10/14 00:18:15;;;;;;;2.97;0.90;;;10.00;84.00;;;;;;5066081;28;20047;-71
2021/10/14 00:21:19;;;;;;;4.60;1.20;;;9.80;85.50;;;;;;5064094;28;20047;-70
2021/10/14 00:24:24;;;;;;;4.45;1.55;;;9.70;85.00;;;;;;5064518;28;20040;-70
2021/10/14 00:27:28;;;;;;;3.05;1.00;;;9.70;85.20;;;;;;5063977;28;20060;-70
2021/10/14 00:30:32;;;;;;;1.23;0.90;;;9.60;86.10;;;;;;5065945;28;20464;-70
2021/10/14 00:33:37;;;;;;;4.55;1.00;;;9.70;85.30;;;;;;5059061;28;20037;-70
2021/10/14 00:36:41;;;;;;;3.17;0.98;;;9.70;85.80;;;;;;5061006;28;20049;-70
2021/10/14 00:39:46;;;;;;;6.82;1.50;;;9.70;85.00;;;;;;5065942;28;20486;-70
2021/10/14 00:42:52;;;;;;;2.55;1.10;;;9.60;85.20;;;;;;5058151;28;20040;-71
2021/10/14 00:45:56;;;;;;;2.78;1.02;;;9.70;85.60;;;;;;5059742;28;20041;-70
2021/10/14 00:49:00;;;;;;;2.92;0.85;;;10.10;85.50;;;;;;5061866;28;20040;-70
2021/10/14 00:52:05;;;;;;;1.55;0.90;;;10.20;85.10;;;;;;5068648;28;20044;-70
2021/10/14 00:55:12;;;;;;;1.35;1.00;;;10.10;85.50;;;;;;5061046;28;20040;-71
2021/10/14 00:58:16;;;;;;;6.25;1.20;;;10.10;85.70;;;;;;5058301;28;20047;-70
2021/10/14 01:01:20;;;;;;;5.20;1.42;;;9.90;86.00;;;;;;5065221;28;20044;-70
2021/10/14 01:04:24;;;;;;;5.07;1.50;;;9.90;86.50;;;;;;5056547;28;20037;-70
2021/10/14 01:07:29;;;;;;;9.55;1.13;;;10.00;87.00;;;;;;5067674;28;20045;-70
2021/10/14 01:10:34;;;;;;;6.97;1.17;;;10.30;86.10;;;;;;5065478;28;20422;-71
2021/10/14 01:13:38;;;;;;;2.85;0.90;;;10.30;85.50;;;;;;5061803;28;20043;-70
2021/10/14 01:16:45;;;;;;;4.93;1.05;;;10.40;85.40;;;;;;5064377;28;20044;-71
2021/10/14 01:19:49;;;;;;;5.88;1.33;;;10.30;86.10;;;;;;5062760;28;20044;-70
2021/10/14 01:22:57;;;;;;;1.80;0.90;;;10.40;85.90;;;;;;5057571;28;20047;-70
2021/10/14 01:26:02;;;;;;;3.53;1.20;;;10.40;85.70;;;;;;5060061;28;20398;-70
2021/10/14 01:29:07;;;;;;;3.40;2.00;;;10.60;85.40;;;;;;5072034;28;20044;-69
2021/10/14 01:32:12;;;;;;;6.18;1.10;;;10.50;85.80;;;;;;5070989;28;20036;-70
2021/10/14 01:35:19;;;;;;;4.80;1.20;;;10.60;85.90;;;;;;5065141;28;20044;-70
2021/10/14 01:38:23;;;;;;;4.63;1.17;;;10.50;85.90;;;;;;5062781;28;20047;-70
2021/10/14 01:41:30;;;;;;;1.70;0.90;;;10.40;86.80;;;;;;5057963;28;20502;-70
2021/10/14 01:44:34;;;;;;;2.42;1.10;;;10.30;86.40;;;;;;5060109;28;20040;-71
2021/10/14 01:47:38;;;;;;;3.70;1.20;;;10.30;86.50;;;;;;5060413;28;20036;-70
2021/10/14 01:50:42;;;;;;;8.95;1.20;;;10.70;85.30;;;;;;5059871;28;20494;-69
2021/10/14 01:53:46;;;;;;;2.97;1.65;;;10.60;85.40;;;;;;5068926;28;20048;-70
2021/10/14 01:56:51;;;;;;;3.83;0.93;;;10.90;84.70;;;;;;5054411;28;20068;-71
2021/10/14 01:59:55;;;;;;;6.22;1.15;;;10.70;85.20;;;;;;5060169;28;20398;-70
2021/10/14 02:02:59;;;;;;;1.92;0.95;;;10.60;85.30;;;;;;5068781;28;20382;-70
2021/10/14 02:06:03;;;;;;;3.83;1.02;;;10.50;86.50;;;;;;5062215;28;20512;-70
2021/10/14 02:09:07;;;;;;;1.58;0.93;;;10.30;87.20;;;;;;5071050;28;20046;-69
2021/10/14 02:12:11;;;;;;;4.85;1.05;;;10.10;87.80;;;;;;5063066;28;20501;-70
2021/10/14 02:15:15;;;;;;;8.60;1.50;;;10.10;87.70;;;;;;5059331;28;20538;-69
2021/10/14 02:18:19;;;;;;;6.90;1.05;;;10.10;88.30;;;;;;5058446;28;20543;-70
2021/10/14 02:21:23;;;;;;;10.13;1.80;;;10.10;88.40;;;;;;5061997;28;20301;-70
2021/10/14 02:24:27;;;;;;;2.45;1.00;;;10.30;87.40;;;;;;5065541;28;20068;-71
2021/10/14 02:27:31;;;;;;;3.53;1.10;;;10.30;87.90;;;;;;5061409;28;20048;-70
2021/10/14 02:30:35;;;;;;;5.28;1.23;;;10.30;87.30;;;;;;5067440;28;20533;-70
2021/10/14 02:33:40;;;;;;;4.53;1.23;;;10.50;86.30;;;;;;5055605;28;20048;-71
2021/10/14 02:36:45;;;;;;;3.58;1.20;;;10.50;86.90;;;;;;5059110;28;20048;-71
2021/10/14 02:39:49;;;;;;;4.55;2.45;;;10.30;87.80;;;;;;5064924;28;20040;-70
2021/10/14 02:42:54;;;;;;;7.53;1.48;;;10.10;88.30;;;;;;5067661;28;20494;-70
2021/10/14 02:45:58;;;;;;;9.20;1.90;;;10.00;88.60;;;;;;5062308;28;20044;-70
2021/10/14 02:49:03;;;;;;;6.65;1.27;;;9.80;88.90;;;;;;5069825;28;20047;-71
2021/10/14 02:52:07;;;;;;;5.55;1.05;;;9.70;89.50;;;;;;5064513;28;20040;-70
2021/10/14 02:55:11;;;;;;;2.17;1.08;;;9.70;89.50;;;;;;5060696;28;20029;-70
2021/10/14 02:58:15;;;;;;;6.82;1.38;;;9.70;89.70;;;;;;5060261;28;20555;-70
2021/10/14 03:01:19;;;;;;;2.50;1.10;;;9.80;89.50;;;;;;5058321;28;20483;-70
2021/10/14 03:04:23;;;;;;;3.97;1.02;;;9.80;89.90;;;;;;5060068;28;20045;-70
2021/10/14 03:07:27;;;;;;;3.15;1.20;;;9.80;90.10;;;;;;5069601;28;20036;-69
2021/10/14 03:10:31;;;;;;;2.40;1.48;;;9.70;89.80;;;;;;5060982;28;20052;-70
2021/10/14 03:13:35;;;;;;;2.28;0.80;;;9.70;90.20;;;;;;5059626;28;20041;-70
2021/10/14 03:16:39;;;;;;;3.45;1.13;;;9.70;90.50;;;;;;5062362;28;20045;-71
2021/10/14 03:19:43;;;;;;;2.47;1.10;;;9.70;90.50;;;;;;5067360;28;20048;-70
2021/10/14 03:22:47;;;;;;;2.33;1.20;;;9.50;90.90;;;;;;5058482;28;20040;-70
2021/10/14 03:25:52;;;;;;;4.85;1.20;;;9.40;90.70;;;;;;5065811;28;20041;-70
2021/10/14 03:28:56;;;;;;;4.45;1.15;;;9.50;90.70;;;;;;5063703;28;20432;-70
2021/10/14 03:32:00;;;;;;;6.05;1.35;;;9.50;90.40;;;;;;5065614;28;20371;-70
2021/10/14 03:35:04;;;;;;;7.20;1.35;;;9.40;90.70;;;;;;5060727;28;20033;-70
2021/10/14 03:38:08;;;;;;;3.15;1.15;;;9.40;90.50;;;;;;5056161;28;20032;-70
2021/10/14 03:41:13;;;;;;;5.32;1.17;;;9.40;90.80;;;;;;5062563;28;20713;-70
2021/10/14 03:44:17;;;;;;;2.85;1.23;;;9.40;90.50;;;;;;5062861;28;20062;-70
2021/10/14 03:47:21;;;;;;;4.20;1.10;;;9.40;91.00;;;;;;5070062;28;20040;-70
2021/10/14 03:50:25;;;;;;;2.97;1.10;;;9.50;90.40;;;;;;5063129;28;20040;-70
2021/10/14 03:53:30;;;;;;;3.95;1.10;;;9.40;90.70;;;;;;5061651;28;20361;-70
2021/10/14 03:56:34;;;;;;;3.08;1.30;;;9.50;90.40;;;;;;5056624;28;20054;-70
2021/10/14 03:59:38;;;;;;;2.60;1.05;;;9.60;90.20;;;;;;5065337;28;20032;-69
2021/10/14 04:02:42;;;;;;;4.75;1.15;;;10.20;88.70;;;;;;5059042;28;20044;-70
2021/10/14 04:05:46;;;;;;;3.90;1.10;;;10.30;88.70;;;;;;5065101;28;20052;-71
2021/10/14 04:08:50;;;;;;;3.15;1.20;;;10.20;89.50;;;;;;5058586;28;20399;-70
2021/10/14 04:11:54;;;;;;;7.35;1.25;;;10.00;89.60;;;;;;5055668;28;20048;-69
2021/10/14 04:14:58;;;;;;;5.55;2.60;;;9.90;90.00;;;;;;5067187;28;20386;-70
2021/10/14 04:18:02;;;;;;;3.17;1.30;;;9.80;90.20;;;;;;5059658;28;20037;-69
2021/10/14 04:21:06;;;;;;;4.18;1.10;;;9.90;89.80;;;;;;5060849;28;20040;-70
2021/10/14 04:24:09;;;;;;;4.55;1.15;;;10.00;90.10;;;;;;5059735;28;20032;-70
2021/10/14 04:27:15;;;;;;;3.53;0.95;;;10.00;90.10;;;;;;5062779;28;20036;-69
2021/10/14 04:30:19;;;;;;;8.57;1.27;;;10.00;90.40;;;;;;5053590;28;20052;-71
2021/10/14 04:33:23;;;;;;;4.05;1.33;;;10.00;90.30;;;;;;5063436;28;20048;-69
2021/10/14 04:36:29;;;;;;;2.95;1.42;;;10.00;90.50;;;;;;5066679;28;20043;-69
2021/10/14 04:39:34;;;;;;;3.22;1.20;;;9.90;90.10;;;;;;5058479;28;20380;-69
2021/10/14 04:42:38;;;;;;;4.15;1.55;;;9.90;90.40;;;;;;5057043;28;20041;-70
2021/10/14 04:45:42;;;;;;;9.25;1.52;;;9.80;90.70;;;;;;5057404;28;20096;-70
2021/10/14 04:48:47;;;;;;;4.45;1.42;;;9.60;90.70;;;;;;5062718;28;20415;-71
2021/10/14 04:51:51;;;;;;;2.80;1.45;;;9.50;90.90;;;;;;5066686;28;20040;-70
2021/10/14 04:54:55;;;;;;;9.55;3.42;;;9.50;90.80;;;;;;5062132;28;20033;-69
2021/10/14 04:58:00;;;;;;;5.80;1.20;;;9.50;90.90;;;;;;5062528;28;20040;-70
2021/10/14 05:01:04;;;;;;;3.72;1.35;;;9.80;90.50;;;;;;5060716;28;20037;-69
2021/10/14 05:04:08;;;;;;;5.95;1.38;;;9.80;90.50;;;;;;5056517;28;20036;-69
2021/10/14 05:07:12;;;;;;;5.50;1.40;;;9.80;90.50;;;;;;5060098;28;20033;-71
2021/10/14 05:10:16;;;;;;;5.75;1.30;;;10.00;90.30;;;;;;5066153;28;20358;-70
2021/10/14 05:13:20;;;;;;;2.03;1.10;;;9.90;90.30;;;;;;5064002;28;20394;-69
2021/10/14 05:16:24;;;;;;;2.15;1.00;;;9.90;90.10;;;;;;5061119;28;20041;-72
2021/10/14 05:19:28;;;;;;;4.60;1.15;;;9.80;90.30;;;;;;5058981;28;20486;-70
2021/10/14 05:22:32;;;;;;;2.58;1.17;;;10.10;89.50;;;;;;5065672;28;20368;-70
2021/10/14 05:25:36;;;;;;;3.22;1.00;;;10.30;88.70;;;;;;5068302;28;20055;-69
2021/10/14 05:28:39;;;;;;;4.72;1.23;;;10.40;88.60;;;;;;5056532;28;20071;-69
2021/10/14 05:31:43;;;;;;;4.25;1.15;;;10.30;89.10;;;;;;5061944;28;20044;-70
2021/10/14 05:34:47;;;;;;;6.60;1.40;;;10.30;89.20;;;;;;5062649;28;20047;-71
2021/10/14 05:37:51;;;;;;;4.05;1.08;;;10.10;90.20;;;;;;5065953;28;20506;-71
2021/10/14 05:40:55;;;;;;;7.18;0.93;;;10.10;90.30;;;;;;5062286;28;20048;-70
2021/10/14 05:43:59;;;;;;;3.60;1.40;;;10.10;90.20;;;;;;5064401;28;20044;-70
2021/10/14 05:47:03;;;;;;;1.95;1.33;;;10.10;89.80;;;;;;5061615;28;20047;-70
2021/10/14 05:50:08;;;;;;;3.60;1.30;;;10.00;90.20;;;;;;5058745;28;20047;-70
2021/10/14 05:53:12;;;;;;;5.90;1.40;;;10.00;90.40;;;;;;5060989;28;20040;-70
2021/10/14 05:56:16;;;;;;;4.75;1.67;;;9.90;90.60;;;;;;5065712;28;20387;-70
2021/10/14 05:59:19;;;;;;;3.92;1.42;;;9.80;90.40;;;;;;5062827;28;20032;-70
2021/10/14 06:02:24;;;;;;;2.92;1.17;;;9.90;90.20;;;;;;5061406;28;20068;-71
2021/10/14 06:05:28;;;;;;;3.83;1.42;;;10.20;89.50;;;;;;5059174;28;20037;-70
2021/10/14 06:08:31;;;;;;;3.47;1.33;;;10.30;89.20;;;;;;5059750;28;20043;-70
2021/10/14 06:11:36;;;;;;;5.40;1.30;;;10.40;88.60;;;;;;5051347;28;20052;-70
2021/10/14 06:14:40;;;;;;;2.55;1.08;;;10.40;87.90;;;;;;5069965;28;20043;-71
2021/10/14 06:17:45;;;;;;;4.45;1.17;;;12.20;86.90;;;;;;5063433;28;20032;-70
2021/10/14 06:20:49;;;;;;;3.92;1.02;;;14.60;80.30;;;;;;5051746;28;20048;-70
2021/10/14 06:23:53;;;;;;;4.28;1.10;;;17.30;76.60;;;;;;5051780;28;20582;-70
2021/10/14 06:26:57;;;;;;;5.03;1.10;;;19.60;71.90;;;;;;5066860;28;20123;-71
2021/10/14 06:30:03;;;;;;;5.97;1.00;;;20.70;68.70;;;;;;5064063;28;20060;-71
2021/10/14 06:33:07;;;;;;;3.67;0.98;;;22.30;67.00;;;;;;5063726;28;20047;-71
2021/10/14 06:36:11;;;;;;;3.08;0.88;;;23.10;64.40;;;;;;5061002;28;20043;-71
2021/10/14 06:39:15;;;;;;;3.40;1.00;;;21.90;64.20;;;;;;5060822;28;20040;-71
2021/10/14 06:42:19;;;;;;;2.90;0.73;;;21.90;63.70;;;;;;5062227;28;20047;-71
2021/10/14 06:45:23;;;;;;;1.95;0.98;;;22.60;63.60;;;;;;5064108;28;20048;-70
2021/10/14 06:48:27;;;;;;;2.42;1.00;;;23.00;62.00;;;;;;5063309;28;20055;-72
2021/10/14 06:51:32;;;;;;;2.25;1.00;;;23.40;62.50;;;;;;5071027;28;20337;-71
2021/10/14 06:54:36;;;;;;;2.38;0.93;;;23.90;60.80;;;;;;5068842;28;20047;-71
2021/10/14 06:57:40;;;;;;;1.67;0.68;;;24.20;60.20;;;;;;5063415;28;20047;-71
2021/10/14 07:00:45;;;;;;;2.15;0.68;;;24.70;60.20;;;;;;5061113;28;20044;-72
2021/10/14 07:03:49;;;;;;;4.80;0.90;;;25.00;59.40;;;;;;5063458;28;20052;-71
2021/10/14 07:06:53;;;;;;;2.60;1.02;;;26.00;58.70;;;;;;5064136;28;20043;-72
2021/10/14 07:09:57;;;;;;;1.23;0.88;;;25.80;57.90;;;;;;5051430;28;20051;-72
2021/10/14 07:13:05;;;;;;;3.38;1.08;;;25.30;57.60;;;;;;5059568;28;20701;-71
2021/10/14 07:16:09;;;;;;;1.58;0.95;;;26.00;57.50;;;;;;5054810;28;20498;-71
2021/10/14 07:19:13;;;;;;;2.92;0.77;;;27.50;56.50;;;;;;5062627;28;20036;-71
2021/10/14 07:22:17;;;;;;;1.95;0.60;;;28.00;54.40;;;;;;5061612;28;20060;-71
2021/10/14 07:25:21;;;;;;;2.03;0.73;;;28.40;55.70;;;;;;5069751;28;20398;-71
2021/10/14 07:28:25;;;;;;;5.43;1.00;;;28.50;55.10;;;;;;5058184;28;20044;-71
2021/10/14 07:31:31;;;;;;;2.58;1.08;;;29.60;54.30;;;;;;5068149;28;20047;-72
2021/10/14 07:34:36;;;;;;;2.47;0.88;;;30.20;53.70;;;;;;5067955;28;20048;-72
2021/10/14 07:37:40;;;;;;;1.40;0.70;;;30.60;52.20;;;;;;5065035;28;20391;-72
2021/10/14 07:40:44;;;;;;;1.10;0.70;;;27.70;51.60;;;;;;5068473;28;20497;-70
2021/10/14 07:43:48;;;;;;;1.80;0.80;;;27.70;54.50;;;;;;5051638;28;20058;-71
2021/10/14 07:46:53;;;;;;;2.67;0.80;;;28.40;53.40;;;;;;5061398;28;20056;-71
2021/10/14 07:49:58;;;;;;;1.52;0.90;;;29.40;53.20;;;;;;5065506;28;20059;-71
2021/10/14 07:53:08;;;;;;;5.38;0.90;;;29.80;52.50;;;;;;5061325;28;20502;-73
2021/10/14 07:56:12;;;;;;;1.88;0.82;;;29.20;51.70;;;;;;5056826;28;20044;-69
2021/10/14 07:59:17;;;;;;;2.03;0.80;;;29.70;51.10;;;;;;5052396;28;20047;-68
2021/10/14 08:02:21;;;;;;;2.30;0.98;;;26.20;51.50;;;;;;5054688;28;20071;-70
2021/10/14 08:05:26;;;;;;;1.83;0.82;;;25.60;53.20;;;;;;5055287;28;20040;-69
2021/10/14 08:08:32;;;;;;;4.82;1.20;;;25.70;52.90;;;;;;5062713;28;20044;-68
2021/10/14 08:11:37;;;;;;;2.47;0.98;;;24.10;55.50;;;;;;5061603;28;20052;-69
2021/10/14 08:14:41;;;;;;;4.32;1.10;;;24.80;55.00;;;;;;5058346;28;21269;-70
2021/10/14 08:17:45;;;;;;;3.40;1.13;;;25.20;53.70;;;;;;5061176;28;20487;-70
2021/10/14 08:20:53;;;;;;;2.97;0.88;;;24.80;54.80;;;;;;5061647;28;20059;-71
2021/10/14 08:23:57;;;;;;;1.05;0.70;;;26.80;53.20;;;;;;5067218;28;20055;-72
2021/10/14 08:27:02;;;;;;;3.67;0.95;;;29.50;51.50;;;;;;5066684;28;20063;-71
2021/10/14 08:30:09;;;;;;;1.73;1.00;;;29.70;50.40;;;;;;5069446;28;20498;-71
2021/10/14 08:33:16;;;;;;;5.07;1.00;;;29.60;50.00;;;;;;5068908;28;20494;-71
2021/10/14 08:36:20;;;;;;;3.05;0.88;;;30.10;49.50;;;;;;5065696;28;20048;-71
2021/10/14 08:39:26;;;;;;;2.85;0.90;;;28.30;50.40;;;;;;5073503;28;20048;-71
2021/10/14 08:42:30;;;;;;;3.00;0.80;;;27.80;51.30;;;;;;5074149;28;20063;-71
2021/10/14 08:45:37;;;;;;;3.38;0.80;;;27.50;50.40;;;;;;5072932;28;20481;-73
2021/10/14 08:48:42;;;;;;;8.05;0.90;;;25.70;53.30;;;;;;5065276;28;20778;-72
2021/10/14 08:51:47;;;;;;;3.20;0.90;;;26.80;52.60;;;;;;5073369;28;20055;-72
2021/10/14 08:54:52;;;;;;;2.65;0.80;;;27.40;50.80;;;;;;5054691;28;20048;-71
2021/10/14 08:57:57;;;;;;;3.08;0.90;;;27.60;50.90;;;;;;5068920;28;20043;-70
2021/10/14 09:01:13;;;;;;;3.40;0.73;;;29.40;50.40;;;;;;5070309;28;20051;-70
2021/10/14 09:04:20;;;;;;;2.58;1.13;;;29.30;50.00;;;;;;5051157;28;20518;-71
2021/10/14 09:07:28;;;;;;;5.68;1.00;;;27.90;50.10;;;;;;5068124;28;20058;-69
2021/10/14 09:10:32;;;;;;;2.38;0.80;;;26.50;50.90;;;;;;5068176;28;20048;-71
2021/10/14 09:13:37;;;;;;;1.73;0.50;;;27.50;50.60;;;;;;5069010;28;20047;-70
2021/10/14 09:16:41;;;;;;;3.85;1.35;;;25.90;51.80;;;;;;5071962;28;20048;-71
2021/10/14 09:19:46;;;;;;;2.33;0.88;;;26.10;51.90;;;;;;5063568;28;20056;-68
2021/10/14 09:23:05;;;;;;;2.05;0.60;;;28.40;50.80;;;;;;5068317;28;20486;-70
2021/10/14 09:26:09;;;;;;;6.25;0.88;;;26.00;51.00;;;;;;5064123;28;20044;-71
2021/10/14 09:29:13;;;;;;;2.67;0.85;;;26.50;51.20;;;;;;5059818;28;20051;-70
2021/10/14 09:32:20;;;;;;;2.85;1.20;;;28.90;50.80;;;;;;5069964;28;20522;-70
2021/10/14 09:35:26;;;;;;;1.75;0.68;;;31.70;48.70;;;;;;5060103;28;20055;-73
2021/10/14 09:38:33;;;;;;;1.85;0.95;;;30.90;47.90;;;;;;5051405;28;20055;-71
2021/10/14 09:41:40;;;;;;;4.53;1.15;;;30.60;47.70;;;;;;5062609;28;20071;-70
2021/10/14 09:44:50;;;;;;;2.60;0.75;;;28.30;49.70;;;;;;5060005;28;20051;-71
2021/10/14 09:48:03;;;;;;;1.88;0.75;;;28.70;49.70;;;;;;5065423;28;20040;-73
2021/10/14 09:51:09;;;;;;;3.95;1.45;;;31.20;48.40;;;;;;5068656;28;20059;-72
2021/10/14 09:54:14;;;;;;;1.77;0.70;;;32.10;47.50;;;;;;5062188;28;20035;-71
2021/10/14 09:57:18;;;;;;;1.63;0.75;;;33.00;46.80;;;;;;5055612;28;20055;-70
2021/10/14 10:00:23;;;;;;;2.28;1.00;;;31.30;46.80;;;;;;5051929;28;20063;-69
2021/10/14 10:03:28;;;;;;;2.90;0.90;;;27.70;49.00;;;;;;5052230;28;20052;-69
2021/10/14 10:06:35;;;;;;;4.45;1.98;;;26.30;50.90;;;;;;5052032;28;20082;-71
2021/10/14 10:09:40;;;;;;;1.98;1.00;;;26.80;50.60;;;;;;5059589;28;20051;-72
2021/10/14 10:12:46;;;;;;;4.70;1.00;;;28.20;48.40;;;;;;5051503;28;20048;-71
2021/10/14 10:15:51;;;;;;;2.85;0.70;;;28.10;48.70;;;;;;5063248;28;20047;-72
2021/10/14 10:18:56;;;;;;;2.35;1.02;;;30.50;48.40;;;;;;5060471;28;20067;-71
2021/10/14 10:22:00;;;;;;;1.30;0.70;;;28.70;48.40;;;;;;5051726;28;20044;-71
2021/10/14 10:25:23;;;;;;;2.95;1.13;;;30.50;47.80;;;;;;5051420;28;20036;-72
2021/10/14 10:28:38;;;;;;;2.20;0.70;;;30.40;47.80;;;;;;5055910;28;20040;-71
2021/10/14 10:31:48;;;;;;;3.35;0.88;;;29.50;48.80;;;;;;5065420;28;20040;-72
2021/10/14 10:34:59;;;;;;;3.28;0.77;;;28.80;48.90;;;;;;5070445;28;20039;-71
2021/10/14 10:38:25;;;;;;;1.73;0.80;;;30.50;47.90;;;;;;5061485;28;20048;-70
2021/10/14 10:41:29;;;;;;;1.10;0.93;;;28.30;48.60;;;;;;5060606;28;20044;-70
2021/10/14 10:44:43;;;;;;;2.42;0.95;;;27.90;49.00;;;;;;5070288;28;20047;-71
2021/10/14 10:47:54;;;;;;;3.13;0.77;;;28.70;49.40;;;;;;5050696;28;20513;-70
2021/10/14 10:50:59;;;;;;;3.45;1.13;;;30.30;47.30;;;;;;5064228;28;20244;-70
2021/10/14 10:54:03;;;;;;;4.00;1.00;;;29.90;47.80;;;;;;5070877;28;20040;-71
2021/10/14 10:57:46;;;;;;;6.47;1.17;;;28.00;48.60;;;;;;5068555;28;20047;-71
2021/10/14 11:00:50;;;;;;;6.32;1.08;;;28.30;48.40;;;;;;5053588;28;20395;-69
2021/10/14 11:04:00;;;;;;;6.45;1.20;;;25.70;49.50;;;;;;5061616;28;20044;-70
2021/10/14 11:07:10;;;;;;;2.85;0.95;;;25.40;49.90;;;;;;5069287;28;20041;-70
2021/10/14 11:10:27;;;;;;;4.63;1.25;;;23.60;51.30;;;;;;5068992;28;20419;-70
2021/10/14 11:13:36;;;;;;;1.92;0.90;;;23.50;53.20;;;;;;5057521;28;20051;-71
2021/10/14 11:16:41;;;;;;;4.22;1.00;;;22.50;54.80;;;;;;5050362;28;20056;-70
2021/10/14 11:19:45;;;;;;;1.65;0.98;;;24.00;53.60;;;;;;5067011;28;20035;-70
2021/10/14 11:22:50;;;;;;;2.40;1.08;;;24.60;52.40;;;;;;5062528;28;20043;-70
2021/10/14 11:26:01;;;;;;;2.92;1.15;;;25.40;52.00;;;;;;5056191;28;20048;-70
2021/10/14 11:29:17;;;;;;;1.23;0.82;;;25.80;50.80;;;;;;5056216;28;20067;-70
2021/10/14 11:32:32;;;;;;;5.53;1.35;;;27.20;50.00;;;;;;5066803;28;20044;-71
2021/10/14 11:35:38;;;;;;;2.70;1.00;;;24.80;50.20;;;;;;5063142;28;20237;-71
2021/10/14 11:38:42;;;;;;;2.65;1.00;;;25.60;50.20;;;;;;5060843;28;20048;-71
2021/10/14 11:42:03;;;;;;;5.90;1.70;;;25.30;50.50;;;;;;5064709;28;20416;-70
2021/10/14 11:45:08;;;;;;;4.75;1.20;;;25.30;50.50;;;;;;5053620;28;20407;-71
2021/10/14 11:48:27;;;;;;;2.58;1.15;;;24.80;50.40;;;;;;5057939;28;20065;-69
2021/10/14 11:51:32;;;;;;;3.10;1.30;;;23.50;52.60;;;;;;5060444;28;20040;-70
2021/10/14 11:54:36;;;;;;;5.15;1.40;;;23.40;54.00;;;;;;5061027;28;20047;-70
2021/10/14 11:57:42;;;;;;;3.47;1.00;;;24.70;52.10;;;;;;5053728;28;20054;-70
2021/10/14 12:00:46;;;;;;;4.95;1.17;;;24.90;52.20;;;;;;5067833;28;20063;-70
2021/10/14 12:03:51;;;;;;;4.13;1.42;;;25.20;52.30;;;;;;5066709;28;20040;-71
2021/10/14 12:06:57;;;;;;;5.43;1.33;;;25.00;51.30;;;;;;5059681;28;20490;-72
2021/10/14 12:10:02;;;;;;;5.28;1.42;;;24.20;51.30;;;;;;5066323;28;20065;-73
2021/10/14 12:13:08;;;;;;;3.30;1.25;;;23.80;52.50;;;;;;5068381;28;20050;-72
2021/10/14 12:16:14;;;;;;;1.83;1.08;;;24.00;52.40;;;;;;5057302;28;20054;-71
2021/10/14 12:19:18;;;;;;;2.72;1.23;;;26.50;50.40;;;;;;5053378;28;20071;-70
2021/10/14 12:22:23;;;;;;;2.00;0.90;;;28.00;49.50;;;;;;5050112;28;20036;-71
2021/10/14 12:25:35;;;;;;;3.88;1.00;;;28.20;48.30;;;;;;5059435;28;20395;-70
2021/10/14 12:28:44;;;;;;;1.70;0.98;;;28.40;49.20;;;;;;5069430;28;20051;-71
2021/10/14 12:32:01;;;;;;;1.63;0.80;;;29.80;46.10;;;;;;5066187;28;20501;-71
2021/10/14 12:35:06;;;;;;;2.17;1.08;;;30.00;47.20;;;;;;5057715;28;20044;-70
2021/10/14 12:38:13;;;;;;;2.17;1.05;;;31.20;47.10;;;;;;5058125;28;20386;-70
2021/10/14 12:41:17;;;;;;;4.03;0.90;;;32.60;46.80;;;;;;5064765;28;20048;-71
2021/10/14 12:44:55;;;;;;;2.50;1.00;;;31.60;45.90;;;;;;5068054;28;20067;-71
2021/10/14 12:47:53;;;;;;;4.80;1.33;;;32.10;46.60;;;;;;5054862;28;20044;-72
2021/10/14 12:51:18;;;;;;;2.42;1.08;;;30.70;46.10;;;;;;5057529;28;20051;-69
2021/10/14 12:54:27;;;;;;;2.50;0.98;;;31.90;46.50;;;;;;5066640;28;20039;-71
2021/10/14 12:57:32;;;;;;;5.30;1.13;;;31.80;46.00;;;;;;5067766;28;20043;-71
2021/10/14 13:00:36;;;;;;;4.72;1.15;;;29.80;46.30;;;;;;5058470;28;20502;-70
2021/10/14 13:03:42;;;;;;;5.20;1.23;;;24.60;50.10;;;;;;5052822;28;20063;-71
2021/10/14 13:06:45;;;;;;;4.53;1.20;;;23.60;51.80;;;;;;5056334;28;20040;-70
2021/10/14 13:09:51;;;;;;;1.45;0.90;;;24.90;51.50;;;;;;5051974;28;20048;-71
2021/10/14 13:12:56;;;;;;;2.25;0.90;;;27.10;48.70;;;;;;5055100;28;20062;-70
2021/10/14 13:16:01;;;;;;;1.75;0.90;;;26.70;48.00;;;;;;5052372;28;20565;-70
2021/10/14 13:19:06;;;;;;;2.67;1.10;;;25.50;49.70;;;;;;5061438;28;20047;-70
2021/10/14 13:22:11;;;;;;;1.67;0.80;;;24.80;50.10;;;;;;5059922;28;20047;-73
2021/10/14 13:25:15;;;;;;;1.55;0.80;;;25.40;50.60;;;;;;5069304;28;20036;-70
2021/10/14 13:28:29;;;;;;;3.78;1.00;;;24.40;49.60;;;;;;5052381;28;20052;-69
2021/10/14 13:31:34;;;;;;;3.00;1.23;;;23.00;51.20;;;;;;5052878;28;20052;-70
2021/10/14 13:34:38;;;;;;;1.90;1.05;;;23.30;52.50;;;;;;5067560;28;20361;-71
2021/10/14 13:37:44;;;;;;;2.55;0.93;;;22.80;51.20;;;;;;5065161;28;20052;-71
2021/10/14 13:44:15;;;;;;;3.28;1.10;;;22.20;52.00;;;;;;5069897;28;20095;-71
2021/10/14 13:47:18;;;;;;;5.95;1.17;;;21.50;52.00;;;;;;5072164;28;20070;-71
2021/10/14 13:50:22;;;;;;;5.95;1.13;;;21.30;52.90;;;;;;5066289;28;20035;-71
2021/10/14 13:53:27;;;;;;;3.63;1.00;;;21.60;51.90;;;;;;5064362;28;20043;-72
2021/10/14 13:56:31;;;;;;;4.43;1.30;;;21.80;52.00;;;;;;5059754;28;20497;-70
2021/10/14 13:59:35;;;;;;;7.43;1.10;;;21.80;51.90;;;;;;5063636;28;20043;-71
2021/10/14 14:02:39;;;;;;;1.83;0.80;;;20.80;52.60;;;;;;5061588;28;20048;-72
2021/10/14 14:05:46;;;;;;;1.42;0.95;;;21.30;52.50;;;;;;5065149;28;20040;-71
2021/10/14 14:08:50;;;;;;;3.45;0.82;;;21.40;52.60;;;;;;5051328;28;20032;-72
2021/10/14 14:11:55;;;;;;;1.75;0.98;;;22.00;52.00;;;;;;5052768;28;20055;-72
2021/10/14 14:14:59;;;;;;;2.05;1.10;;;23.70;50.60;;;;;;5057535;28;20040;-71
2021/10/14 14:18:07;;;;;;;3.42;1.00;;;23.20;49.90;;;;;;5057157;28;20043;-71
2021/10/14 14:21:13;;;;;;;1.92;1.00;;;21.90;51.60;;;;;;5064780;28;20044;-71
2021/10/14 14:24:17;;;;;;;2.28;1.30;;;20.20;54.40;;;;;;5069572;28;20036;-71
2021/10/14 14:27:21;;;;;;;2.88;1.00;;;21.10;53.90;;;;;;5052817;28;20052;-71
2021/10/14 14:30:25;;;;;;;2.33;0.70;;;21.60;51.90;;;;;;5064528;28;20036;-70
2021/10/14 14:33:29;;;;;;;2.33;0.90;;;21.30;52.60;;;;;;5051496;28;20059;-70
2021/10/14 14:36:33;;;;;;;1.70;0.77;;;20.50;52.20;;;;;;5051383;28;20068;-71
2021/10/14 14:39:38;;;;;;;3.58;0.90;;;20.60;51.70;;;;;;5057595;28;20514;-70
2021/10/14 14:42:42;;;;;;;5.43;1.15;;;20.50;52.90;;;;;;5062591;28;20048;-70
2021/10/14 14:45:46;;;;;;;2.78;1.20;;;19.80;54.00;;;;;;5059084;28;20794;-70
2021/10/14 14:48:50;;;;;;;2.33;0.90;;;19.50;53.80;;;;;;5051280;28;20418;-71
2021/10/14 14:51:55;;;;;;;1.88;1.20;;;20.20;53.10;;;;;;5062226;28;20048;-71
2021/10/14 14:54:59;;;;;;;2.95;1.17;;;19.70;53.10;;;;;;5068291;28;20051;-70
2021/10/14 14:58:03;;;;;;;4.57;0.93;;;18.90;54.80;;;;;;5069842;28;20051;-70
2021/10/14 15:01:08;;;;;;;2.17;0.90;;;18.50;55.10;;;;;;5069387;28;20406;-71
2021/10/14 15:04:13;;;;;;;1.95;1.00;;;18.10;55.20;;;;;;5051507;28;20040;-70
2021/10/14 15:07:17;;;;;;;3.63;1.02;;;18.00;55.30;;;;;;5051072;28;20048;-71
2021/10/14 15:10:21;;;;;;;2.85;1.52;;;18.50;54.60;;;;;;5052194;28;20043;-72
2021/10/14 15:13:25;;;;;;;3.55;0.88;;;18.40;54.00;;;;;;5069031;28;20048;-70
2021/10/14 15:16:30;;;;;;;2.45;1.08;;;17.90;55.20;;;;;;5066416;28;20047;-71
2021/10/14 15:19:34;;;;;;;4.18;1.15;;;17.60;55.50;;;;;;5069716;28;20048;-69
2021/10/14 15:22:39;;;;;;;3.40;0.90;;;18.10;55.10;;;;;;5049512;28;20044;-69
2021/10/14 15:25:43;;;;;;;3.15;1.02;;;18.20;55.30;;;;;;5068477;28;20044;-70
2021/10/14 15:28:47;;;;;;;1.10;0.90;;;17.90;54.80;;;;;;5052930;28;20040;-70
2021/10/14 15:31:51;;;;;;;2.00;0.80;;;17.90;54.30;;;;;;5054755;28;20059;-69
2021/10/14 15:34:55;;;;;;;6.45;1.23;;;17.80;52.90;;;;;;5050580;28;20048;-70
2021/10/14 15:38:03;;;;;;;3.05;1.08;;;17.40;54.30;;;;;;5058227;28;20051;-70
2021/10/14 15:41:09;;;;;;;2.08;1.05;;;17.40;55.40;;;;;;5069448;28;20039;-70
2021/10/14 15:44:16;;;;;;;2.10;1.23;;;16.90;56.20;;;;;;5050096;28;20507;-69
2021/10/14 15:47:20;;;;;;;2.10;1.17;;;16.40;55.80;;;;;;5061814;28;20383;-70
2021/10/14 15:50:24;;;;;;;3.20;0.95;;;16.30;55.20;;;;;;5068130;28;20044;-69
2021/10/14 15:53:29;;;;;;;2.22;0.90;;;16.40;55.20;;;;;;5050124;28;20289;-69
2021/10/14 15:56:35;;;;;;;2.10;1.10;;;16.30;55.50;;;;;;5049458;28;20049;-69
2021/10/14 15:59:38;;;;;;;2.30;1.10;;;16.10;55.90;;;;;;5060930;28;20054;-69
2021/10/14 16:02:42;;;;;;;2.50;1.08;;;15.60;56.90;;;;;;5069089;28;20047;-68
2021/10/14 16:05:49;;;;;;;1.58;1.00;;;15.30;57.30;;;;;;5052955;28;20490;-68
2021/10/14 16:08:54;;;;;;;5.15;0.95;;;15.00;57.00;;;;;;5049159;28;20043;-69
2021/10/14 16:11:59;;;;;;;2.80;1.20;;;14.90;58.70;;;;;;5050221;28;20407;-69